Bethesda, United Kingdom
Current Conditions -  °F | °C
As of 3:50 PM on Sunday 25 Jan 2015 (Local Time) from EGOV Reporting Station
Overcast Overcast  
Wind Chill: 41°   Ceiling: 400
Heat Index: 48°   Visibility: 6mi
Dew Point: 48°   Wind: 21mph
Humidity: 100%   Direction: 210°SSW
Pressure: 30.21"   Gusts: NA
Location:  53.17°N, 4.08°W
Report Text: EGOV 251550Z AUTO 21018KT 9999 OVC004/// 09/09 Q1023
Loading
Personal Weather Stations






























Interactive Weather Map New forecast layout! Learn more

10-Day Weather Forecast

Advertisements
Track Severe Weather on mobile